sensor_id;sensor_type;location;lat;lon;timestamp;pressure;altitude;pressure_sealevel;temperature;humidity
7836;BME280;3963;42.658;23.298;2022-08-16T00:02:07;60561.72;;;18.72;100.00
7836;BME280;3963;42.658;23.298;2022-08-16T00:04:35;60569.97;;;18.68;100.00
7836;BME280;3963;42.658;23.298;2022-08-16T00:07:02;60595.56;;;18.65;100.00
7836;BME280;3963;42.658;23.298;2022-08-16T00:09:29;60508.84;;;18.45;100.00
7836;BME280;3963;42.658;23.298;2022-08-16T00:11:56;60512.31;;;18.24;100.00
7836;BME280;3963;42.658;23.298;2022-08-16T00:14:26;60522.72;;;18.21;100.00
7836;BME280;3963;42.658;23.298;2022-08-16T00:16:53;60526.13;;;18.30;100.00
7836;BME280;3963;42.658;23.298;2022-08-16T00:19:22;60453.19;;;18.28;100.00
7836;BME280;3963;42.658;23.298;2022-08-16T00:21:52;60510.25;;;18.24;100.00
7836;BME280;3963;42.658;23.298;2022-08-16T00:24:20;60558.16;;;18.30;100.00
7836;BME280;3963;42.658;23.298;2022-08-16T00:26:47;60495.59;;;18.25;100.00
7836;BME280;3963;42.658;23.298;2022-08-16T00:29:15;60528.13;;;18.27;100.00
7836;BME280;3963;42.658;23.298;2022-08-16T00:31:44;60489.34;;;18.27;100.00
7836;BME280;3963;42.658;23.298;2022-08-16T00:34:12;60506.53;;;18.23;100.00
7836;BME280;3963;42.658;23.298;2022-08-16T00:36:39;60527.50;;;18.23;100.00
7836;BME280;3963;42.658;23.298;2022-08-16T00:39:07;60495.97;;;18.21;100.00
7836;BME280;3963;42.658;23.298;2022-08-16T00:41:34;60508.81;;;18.13;100.00
7836;BME280;3963;42.658;23.298;2022-08-16T00:44:03;60480.44;;;18.11;100.00
7836;BME280;3963;42.658;23.298;2022-08-16T00:46:37;60486.13;;;18.09;100.00
7836;BME280;3963;42.658;23.298;2022-08-16T00:49:07;60527.44;;;18.06;100.00
7836;BME280;3963;42.658;23.298;2022-08-16T00:51:34;60471.00;;;17.81;100.00
7836;BME280;3963;42.658;23.298;2022-08-16T00:54:02;60475.88;;;17.85;100.00
7836;BME280;3963;42.658;23.298;2022-08-16T00:56:33;60450.00;;;17.95;100.00
7836;BME280;3963;42.658;23.298;2022-08-16T00:59:02;60476.56;;;18.05;100.00
7836;BME280;3963;42.658;23.298;2022-08-16T01:01:31;60520.75;;;18.10;100.00
7836;BME280;3963;42.658;23.298;2022-08-16T01:03:59;60482.78;;;18.18;100.00
7836;BME280;3963;42.658;23.298;2022-08-16T01:06:26;60543.41;;;18.29;100.00
7836;BME280;3963;42.658;23.298;2022-08-16T01:08:55;60535.25;;;18.36;100.00
7836;BME280;3963;42.658;23.298;2022-08-16T01:11:24;60543.41;;;18.29;100.00
7836;BME280;3963;42.658;23.298;2022-08-16T01:13:56;60516.47;;;18.23;100.00
7836;BME280;3963;42.658;23.298;2022-08-16T01:16:25;60518.00;;;18.37;100.00
7836;BME280;3963;42.658;23.298;2022-08-16T01:18:59;60527.41;;;18.36;100.00
7836;BME280;3963;42.658;23.298;2022-08-16T01:21:34;60549.00;;;18.39;100.00
7836;BME280;3963;42.658;23.298;2022-08-16T01:24:18;60555.59;;;18.47;100.00
7836;BME280;3963;42.658;23.298;2022-08-16T01:26:47;60525.47;;;18.41;100.00
7836;BME280;3963;42.658;23.298;2022-08-16T01:29:20;60543.38;;;18.43;100.00
7836;BME280;3963;42.658;23.298;2022-08-16T01:31:50;60545.19;;;18.50;100.00
7836;BME280;3963;42.658;23.298;2022-08-16T01:34:18;60575.03;;;18.48;100.00
7836;BME280;3963;42.658;23.298;2022-08-16T01:36:45;60541.75;;;18.42;100.00
7836;BME280;3963;42.658;23.298;2022-08-16T01:39:15;60553.72;;;18.38;100.00
7836;BME280;3963;42.658;23.298;2022-08-16T01:41:43;60543.88;;;18.27;100.00
7836;BME280;3963;42.658;23.298;2022-08-16T01:44:10;60499.91;;;18.30;100.00
7836;BME280;3963;42.658;23.298;2022-08-16T01:46:39;60559.50;;;18.39;100.00
7836;BME280;3963;42.658;23.298;2022-08-16T01:49:08;60537.44;;;18.38;100.00
7836;BME280;3963;42.658;23.298;2022-08-16T01:51:36;60540.69;;;18.41;100.00
7836;BME280;3963;42.658;23.298;2022-08-16T01:54:03;60567.19;;;18.48;100.00
7836;BME280;3963;42.658;23.298;2022-08-16T01:56:31;60560.94;;;18.50;100.00
7836;BME280;3963;42.658;23.298;2022-08-16T01:59:01;60563.66;;;18.52;100.00
7836;BME280;3963;42.658;23.298;2022-08-16T02:01:29;60586.53;;;18.61;100.00
7836;BME280;3963;42.658;23.298;2022-08-16T02:03:56;60588.94;;;18.71;100.00
7836;BME280;3963;42.658;23.298;2022-08-16T02:06:24;60613.75;;;18.74;100.00
7836;BME280;3963;42.658;23.298;2022-08-16T02:08:51;60591.22;;;18.75;100.00
7836;BME280;3963;42.658;23.298;2022-08-16T02:11:20;60605.31;;;18.74;100.00
7836;BME280;3963;42.658;23.298;2022-08-16T02:13:49;60609.22;;;18.80;100.00
7836;BME280;3963;42.658;23.298;2022-08-16T02:16:16;60622.97;;;18.83;100.00
7836;BME280;3963;42.658;23.298;2022-08-16T02:18:43;60617.78;;;18.86;100.00
7836;BME280;3963;42.658;23.298;2022-08-16T02:21:11;60610.53;;;18.89;100.00
7836;BME280;3963;42.658;23.298;2022-08-16T02:23:39;60643.31;;;18.95;100.00
7836;BME280;3963;42.658;23.298;2022-08-16T02:26:06;60585.97;;;18.75;100.00
7836;BME280;3963;42.658;23.298;2022-08-16T02:28:33;60601.41;;;18.83;100.00
7836;BME280;3963;42.658;23.298;2022-08-16T02:31:05;60655.09;;;18.86;100.00
7836;BME280;3963;42.658;23.298;2022-08-16T02:33:32;60559.91;;;18.66;100.00
7836;BME280;3963;42.658;23.298;2022-08-16T02:35:59;60552.88;;;18.45;100.00
7836;BME280;3963;42.658;23.298;2022-08-16T02:38:26;60550.00;;;18.37;100.00
7836;BME280;3963;42.658;23.298;2022-08-16T02:40:55;60543.69;;;18.36;100.00
7836;BME280;3963;42.658;23.298;2022-08-16T02:43:23;60564.09;;;18.50;100.00
7836;BME280;3963;42.658;23.298;2022-08-16T02:45:50;60582.38;;;18.62;100.00
7836;BME280;3963;42.658;23.298;2022-08-16T02:48:19;60595.38;;;18.74;100.00
7836;BME280;3963;42.658;23.298;2022-08-16T02:50:46;60620.97;;;18.86;100.00
7836;BME280;3963;42.658;23.298;2022-08-16T02:53:14;60627.00;;;18.94;100.00
7836;BME280;3963;42.658;23.298;2022-08-16T02:55:41;60613.34;;;18.94;100.00
7836;BME280;3963;42.658;23.298;2022-08-16T02:58:08;60652.34;;;18.98;100.00
7836;BME280;3963;42.658;23.298;2022-08-16T03:00:36;60647.72;;;19.01;100.00
7836;BME280;3963;42.658;23.298;2022-08-16T03:03:03;60648.38;;;19.04;100.00
7836;BME280;3963;42.658;23.298;2022-08-16T03:05:32;60680.75;;;19.15;100.00
7836;BME280;3963;42.658;23.298;2022-08-16T03:07:59;60708.34;;;19.23;100.00
7836;BME280;3963;42.658;23.298;2022-08-16T03:10:26;60646.25;;;19.19;100.00
7836;BME280;3963;42.658;23.298;2022-08-16T03:12:53;60658.75;;;19.16;100.00
7836;BME280;3963;42.658;23.298;2022-08-16T03:15:21;60640.22;;;19.11;100.00
7836;BME280;3963;42.658;23.298;2022-08-16T03:17:48;60672.06;;;19.07;100.00
7836;BME280;3963;42.658;23.298;2022-08-16T03:20:15;60682.56;;;19.21;100.00
7836;BME280;3963;42.658;23.298;2022-08-16T03:22:44;60651.75;;;19.27;100.00
7836;BME280;3963;42.658;23.298;2022-08-16T03:25:13;60690.53;;;19.09;100.00
7836;BME280;3963;42.658;23.298;2022-08-16T03:27:41;60640.00;;;19.21;100.00
7836;BME280;3963;42.658;23.298;2022-08-16T03:30:12;60660.91;;;19.18;100.00
7836;BME280;3963;42.658;23.298;2022-08-16T03:32:39;60666.25;;;19.21;100.00
7836;BME280;3963;42.658;23.298;2022-08-16T03:35:07;60707.56;;;19.15;100.00
7836;BME280;3963;42.658;23.298;2022-08-16T03:37:34;60650.72;;;19.11;100.00
7836;BME280;3963;42.658;23.298;2022-08-16T03:40:03;60657.50;;;19.10;100.00
7836;BME280;3963;42.658;23.298;2022-08-16T03:42:32;60634.78;;;19.06;100.00
7836;BME280;3963;42.658;23.298;2022-08-16T03:44:58;60669.19;;;18.99;100.00
7836;BME280;3963;42.658;23.298;2022-08-16T03:47:25;60639.59;;;18.94;100.00
7836;BME280;3963;42.658;23.298;2022-08-16T03:49:54;60637.50;;;18.94;100.00
7836;BME280;3963;42.658;23.298;2022-08-16T03:52:22;60624.75;;;18.90;100.00
7836;BME280;3963;42.658;23.298;2022-08-16T03:54:50;60590.38;;;18.82;100.00
7836;BME280;3963;42.658;23.298;2022-08-16T03:57:18;60612.47;;;18.83;100.00
7836;BME280;3963;42.658;23.298;2022-08-16T03:59:45;60574.75;;;18.70;100.00
7836;BME280;3963;42.658;23.298;2022-08-16T04:02:12;60598.81;;;18.68;100.00
7836;BME280;3963;42.658;23.298;2022-08-16T04:04:39;60627.22;;;18.70;100.00
7836;BME280;3963;42.658;23.298;2022-08-16T04:07:06;60608.84;;;18.70;100.00
7836;BME280;3963;42.658;23.298;2022-08-16T04:09:33;60611.47;;;18.70;100.00
7836;BME280;3963;42.658;23.298;2022-08-16T04:12:00;60606.78;;;18.70;100.00
7836;BME280;3963;42.658;23.298;2022-08-16T04:14:29;60627.69;;;18.68;100.00
7836;BME280;3963;42.658;23.298;2022-08-16T04:16:56;60598.28;;;18.67;100.00
7836;BME280;3963;42.658;23.298;2022-08-16T04:19:25;60608.06;;;18.62;100.00
7836;BME280;3963;42.658;23.298;2022-08-16T04:21:52;60579.66;;;18.60;100.00
7836;BME280;3963;42.658;23.298;2022-08-16T04:24:19;60603.09;;;18.55;100.00
7836;BME280;3963;42.658;23.298;2022-08-16T04:26:47;60595.22;;;18.55;100.00
7836;BME280;3963;42.658;23.298;2022-08-16T04:29:14;60602.88;;;18.64;100.00
7836;BME280;3963;42.658;23.298;2022-08-16T04:31:42;60589.84;;;18.67;100.00
7836;BME280;3963;42.658;23.298;2022-08-16T04:34:09;60576.72;;;18.67;100.00
7836;BME280;3963;42.658;23.298;2022-08-16T04:36:36;60623.59;;;18.71;100.00
7836;BME280;3963;42.658;23.298;2022-08-16T04:39:03;60590.47;;;18.70;100.00
7836;BME280;3963;42.658;23.298;2022-08-16T04:41:30;60662.16;;;18.78;100.00
7836;BME280;3963;42.658;23.298;2022-08-16T04:43:58;60592.28;;;18.76;100.00
7836;BME280;3963;42.658;23.298;2022-08-16T04:46:25;60631.00;;;18.88;100.00
7836;BME280;3963;42.658;23.298;2022-08-16T04:48:53;60623.22;;;18.91;100.00
7836;BME280;3963;42.658;23.298;2022-08-16T04:51:21;60636.09;;;18.83;100.00
7836;BME280;3963;42.658;23.298;2022-08-16T04:53:49;60596.81;;;18.71;100.00
7836;BME280;3963;42.658;23.298;2022-08-16T04:56:16;60600.97;;;18.70;100.00
7836;BME280;3963;42.658;23.298;2022-08-16T04:58:44;60604.97;;;18.78;100.00
7836;BME280;3963;42.658;23.298;2022-08-16T05:01:11;60617.53;;;18.78;100.00
7836;BME280;3963;42.658;23.298;2022-08-16T05:03:38;60635.63;;;18.70;100.00
7836;BME280;3963;42.658;23.298;2022-08-16T05:06:07;60616.56;;;18.65;100.00
7836;BME280;3963;42.658;23.298;2022-08-16T05:08:33;60607.41;;;18.73;100.00
7836;BME280;3963;42.658;23.298;2022-08-16T05:11:05;60599.63;;;18.76;100.00
7836;BME280;3963;42.658;23.298;2022-08-16T05:13:33;60627.38;;;18.90;100.00
7836;BME280;3963;42.658;23.298;2022-08-16T05:16:01;60649.47;;;18.91;100.00
7836;BME280;3963;42.658;23.298;2022-08-16T05:18:28;60637.69;;;18.99;100.00
7836;BME280;3963;42.658;23.298;2022-08-16T05:20:56;60639.22;;;18.98;100.00
7836;BME280;3963;42.658;23.298;2022-08-16T05:23:24;60680.34;;;19.02;100.00
7836;BME280;3963;42.658;23.298;2022-08-16T05:25:51;60661.22;;;18.97;100.00
7836;BME280;3963;42.658;23.298;2022-08-16T05:28:18;60672.53;;;19.05;100.00
7836;BME280;3963;42.658;23.298;2022-08-16T05:30:45;60659.56;;;19.10;100.00
7836;BME280;3963;42.658;23.298;2022-08-16T05:33:12;60682.75;;;19.12;100.00
7836;BME280;3963;42.658;23.298;2022-08-16T05:35:39;60672.78;;;19.12;100.00
7836;BME280;3963;42.658;23.298;2022-08-16T05:38:06;60692.16;;;19.25;100.00
7836;BME280;3963;42.658;23.298;2022-08-16T05:40:34;60675.66;;;19.34;100.00
7836;BME280;3963;42.658;23.298;2022-08-16T05:43:01;60683.00;;;19.34;100.00
7836;BME280;3963;42.658;23.298;2022-08-16T05:45:27;60672.09;;;19.39;100.00
7836;BME280;3963;42.658;23.298;2022-08-16T05:47:54;60715.69;;;19.52;100.00
7836;BME280;3963;42.658;23.298;2022-08-16T05:50:22;60698.28;;;19.51;100.00
7836;BME280;3963;42.658;23.298;2022-08-16T05:52:48;60757.81;;;19.55;100.00
7836;BME280;3963;42.658;23.298;2022-08-16T05:55:16;60740.31;;;19.65;100.00
7836;BME280;3963;42.658;23.298;2022-08-16T05:57:46;60746.06;;;19.80;100.00
7836;BME280;3963;42.658;23.298;2022-08-16T06:00:14;60783.78;;;19.91;100.00
7836;BME280;3963;42.658;23.298;2022-08-16T06:02:41;60779.97;;;19.87;100.00
7836;BME280;3963;42.658;23.298;2022-08-16T06:05:08;60796.75;;;19.86;100.00
7836;BME280;3963;42.658;23.298;2022-08-16T06:07:36;60820.78;;;19.96;100.00
7836;BME280;3963;42.658;23.298;2022-08-16T06:10:03;60813.81;;;19.92;100.00
7836;BME280;3963;42.658;23.298;2022-08-16T06:12:31;60830.19;;;20.10;100.00
7836;BME280;3963;42.658;23.298;2022-08-16T06:15:02;60804.16;;;20.17;100.00
7836;BME280;3963;42.658;23.298;2022-08-16T06:17:29;60848.50;;;20.22;100.00
7836;BME280;3963;42.658;23.298;2022-08-16T06:19:56;60820.56;;;20.35;100.00
7836;BME280;3963;42.658;23.298;2022-08-16T06:22:23;60879.69;;;20.41;100.00
7836;BME280;3963;42.658;23.298;2022-08-16T06:24:50;60860.81;;;20.43;100.00
7836;BME280;3963;42.658;23.298;2022-08-16T06:27:17;60888.94;;;20.50;100.00
7836;BME280;3963;42.658;23.298;2022-08-16T06:29:43;60874.78;;;20.51;100.00
7836;BME280;3963;42.658;23.298;2022-08-16T06:32:12;60858.63;;;20.56;100.00
7836;BME280;3963;42.658;23.298;2022-08-16T06:34:39;60870.41;;;20.62;100.00
7836;BME280;3963;42.658;23.298;2022-08-16T06:37:05;60919.78;;;20.73;100.00
7836;BME280;3963;42.658;23.298;2022-08-16T06:39:33;60928.28;;;20.91;100.00
7836;BME280;3963;42.658;23.298;2022-08-16T06:42:00;60948.81;;;21.05;100.00
7836;BME280;3963;42.658;23.298;2022-08-16T06:44:27;60962.81;;;21.13;100.00
7836;BME280;3963;42.658;23.298;2022-08-16T06:46:54;60979.25;;;21.16;100.00
7836;BME280;3963;42.658;23.298;2022-08-16T06:49:22;60976.31;;;21.23;100.00
7836;BME280;3963;42.658;23.298;2022-08-16T06:51:49;60989.28;;;21.33;100.00
7836;BME280;3963;42.658;23.298;2022-08-16T06:54:16;61000.56;;;21.38;100.00
7836;BME280;3963;42.658;23.298;2022-08-16T06:56:44;61032.25;;;21.56;100.00
7836;BME280;3963;42.658;23.298;2022-08-16T06:59:10;61044.53;;;21.60;100.00
7836;BME280;3963;42.658;23.298;2022-08-16T07:01:37;61059.59;;;21.83;100.00
7836;BME280;3963;42.658;23.298;2022-08-16T07:04:04;61102.16;;;21.93;100.00
7836;BME280;3963;42.658;23.298;2022-08-16T07:06:32;61085.78;;;21.78;100.00
7836;BME280;3963;42.658;23.298;2022-08-16T07:08:59;61057.25;;;21.76;100.00
7836;BME280;3963;42.658;23.298;2022-08-16T07:11:26;61090.78;;;21.85;100.00
7836;BME280;3963;42.658;23.298;2022-08-16T07:13:53;61117.19;;;22.00;100.00
7836;BME280;3963;42.658;23.298;2022-08-16T07:16:19;61097.78;;;22.04;100.00
7836;BME280;3963;42.658;23.298;2022-08-16T07:18:46;61117.50;;;22.25;100.00
7836;BME280;3963;42.658;23.298;2022-08-16T07:21:14;61119.41;;;22.34;100.00
7836;BME280;3963;42.658;23.298;2022-08-16T07:23:42;61136.59;;;22.42;100.00
7836;BME280;3963;42.658;23.298;2022-08-16T07:26:14;61243.00;;;22.94;100.00
7836;BME280;3963;42.658;23.298;2022-08-16T07:28:44;61229.88;;;23.11;100.00
7836;BME280;3963;42.658;23.298;2022-08-16T07:31:11;61352.34;;;23.66;100.00
7836;BME280;3963;42.658;23.298;2022-08-16T07:33:38;61411.97;;;24.21;100.00
7836;BME280;3963;42.658;23.298;2022-08-16T07:36:06;61529.41;;;24.75;100.00
7836;BME280;3963;42.658;23.298;2022-08-16T07:38:34;61651.53;;;25.39;100.00
7836;BME280;3963;42.658;23.298;2022-08-16T07:41:03;61683.63;;;25.91;100.00
7836;BME280;3963;42.658;23.298;2022-08-16T07:43:30;61734.34;;;26.13;100.00
7836;BME280;3963;42.658;23.298;2022-08-16T07:45:58;61808.63;;;26.69;100.00
7836;BME280;3963;42.658;23.298;2022-08-16T07:48:25;61918.66;;;27.26;98.01
7836;BME280;3963;42.658;23.298;2022-08-16T07:50:52;61992.09;;;27.54;95.16
7836;BME280;3963;42.658;23.298;2022-08-16T07:53:19;61920.56;;;27.35;96.96
7836;BME280;3963;42.658;23.298;2022-08-16T07:55:46;61961.41;;;27.60;96.50
7836;BME280;3963;42.658;23.298;2022-08-16T07:58:14;62073.09;;;28.14;93.16
7836;BME280;3963;42.658;23.298;2022-08-16T08:00:41;62225.41;;;28.94;81.65
7836;BME280;3963;42.658;23.298;2022-08-16T08:03:08;62277.44;;;29.44;78.20
7836;BME280;3963;42.658;23.298;2022-08-16T08:05:35;62324.41;;;29.87;74.68
7836;BME280;3963;42.658;23.298;2022-08-16T08:08:02;62340.81;;;29.68;72.93
7836;BME280;3963;42.658;23.298;2022-08-16T08:10:29;62347.88;;;29.72;71.01
7836;BME280;3963;42.658;23.298;2022-08-16T08:12:56;62466.31;;;30.36;68.01
7836;BME280;3963;42.658;23.298;2022-08-16T08:15:24;62429.03;;;30.27;68.10
7836;BME280;3963;42.658;23.298;2022-08-16T08:17:51;62576.09;;;30.95;66.27
7836;BME280;3963;42.658;23.298;2022-08-16T08:20:20;62603.50;;;30.83;64.17
7836;BME280;3963;42.658;23.298;2022-08-16T08:22:47;62673.41;;;31.47;62.08
7836;BME280;3963;42.658;23.298;2022-08-16T08:25:15;62746.13;;;31.98;59.49
7836;BME280;3963;42.658;23.298;2022-08-16T08:27:42;62880.41;;;32.57;56.40
7836;BME280;3963;42.658;23.298;2022-08-16T08:30:10;62920.63;;;32.83;52.98
7836;BME280;3963;42.658;23.298;2022-08-16T08:32:39;62938.03;;;32.75;54.35
7836;BME280;3963;42.658;23.298;2022-08-16T08:35:07;63058.66;;;33.35;52.45
7836;BME280;3963;42.658;23.298;2022-08-16T08:37:36;63220.09;;;34.18;49.49
7836;BME280;3963;42.658;23.298;2022-08-16T08:40:04;63211.56;;;34.20;46.36
7836;BME280;3963;42.658;23.298;2022-08-16T08:42:31;63161.00;;;33.94;44.04
7836;BME280;3963;42.658;23.298;2022-08-16T08:44:57;62964.75;;;32.99;44.81
7836;BME280;3963;42.658;23.298;2022-08-16T08:47:24;63001.06;;;33.34;43.98
7836;BME280;3963;42.658;23.298;2022-08-16T08:49:53;63159.13;;;33.87;43.37
7836;BME280;3963;42.658;23.298;2022-08-16T08:52:21;63028.69;;;33.25;41.81
7836;BME280;3963;42.658;23.298;2022-08-16T08:54:47;62829.38;;;32.42;43.44
7836;BME280;3963;42.658;23.298;2022-08-16T08:57:14;62743.75;;;32.06;44.96
7836;BME280;3963;42.658;23.298;2022-08-16T08:59:42;62819.28;;;32.30;45.24
7836;BME280;3963;42.658;23.298;2022-08-16T09:02:10;62935.28;;;33.02;42.72
7836;BME280;3963;42.658;23.298;2022-08-16T09:04:37;63224.59;;;34.22;39.89
7836;BME280;3963;42.658;23.298;2022-08-16T09:07:05;63273.13;;;34.52;38.77
7836;BME280;3963;42.658;23.298;2022-08-16T09:09:32;63128.84;;;33.70;38.96
7836;BME280;3963;42.658;23.298;2022-08-16T09:11:59;62747.31;;;31.72;44.09
7836;BME280;3963;42.658;23.298;2022-08-16T09:14:26;62629.13;;;31.23;45.07
7836;BME280;3963;42.658;23.298;2022-08-16T09:16:53;62736.50;;;31.70;45.32
7836;BME280;3963;42.658;23.298;2022-08-16T09:19:20;62854.75;;;32.46;42.76
7836;BME280;3963;42.658;23.298;2022-08-16T09:21:47;62662.78;;;31.35;45.41
7836;BME280;3963;42.658;23.298;2022-08-16T09:24:17;62840.19;;;32.45;43.43
7836;BME280;3963;42.658;23.298;2022-08-16T09:26:44;62942.28;;;32.74;41.62
7836;BME280;3963;42.658;23.298;2022-08-16T09:29:11;62936.78;;;32.98;41.56
7836;BME280;3963;42.658;23.298;2022-08-16T09:31:38;62751.03;;;31.86;42.83
7836;BME280;3963;42.658;23.298;2022-08-16T09:34:05;62791.22;;;32.27;43.62
7836;BME280;3963;42.658;23.298;2022-08-16T09:36:32;62878.38;;;32.60;43.08
7836;BME280;3963;42.658;23.298;2022-08-16T09:38:59;63103.53;;;33.69;40.11
7836;BME280;3963;42.658;23.298;2022-08-16T09:41:29;63296.88;;;34.39;38.44
7836;BME280;3963;42.658;23.298;2022-08-16T09:43:57;63333.53;;;34.79;37.09
7836;BME280;3963;42.658;23.298;2022-08-16T09:46:24;63415.50;;;35.07;37.02
7836;BME280;3963;42.658;23.298;2022-08-16T09:48:51;63483.06;;;35.36;36.46
7836;BME280;3963;42.658;23.298;2022-08-16T09:51:19;63411.66;;;35.18;35.64
7836;BME280;3963;42.658;23.298;2022-08-16T09:53:47;63373.69;;;34.86;37.25
7836;BME280;3963;42.658;23.298;2022-08-16T09:56:22;63224.53;;;34.08;37.53
7836;BME280;3963;42.658;23.298;2022-08-16T09:58:51;63189.84;;;34.15;37.14
7836;BME280;3963;42.658;23.298;2022-08-16T10:01:18;63105.09;;;33.68;38.48
7836;BME280;3963;42.658;23.298;2022-08-16T10:03:44;63043.72;;;33.39;39.44
7836;BME280;3963;42.658;23.298;2022-08-16T10:06:11;62981.06;;;33.04;38.97
7836;BME280;3963;42.658;23.298;2022-08-16T10:08:38;63074.00;;;33.57;38.81
7836;BME280;3963;42.658;23.298;2022-08-16T10:11:05;63049.75;;;33.42;38.29
7836;BME280;3963;42.658;23.298;2022-08-16T10:13:51;62907.78;;;32.84;39.61
7836;BME280;3963;42.658;23.298;2022-08-16T10:16:17;63191.06;;;34.19;36.93
7836;BME280;3963;42.658;23.298;2022-08-16T10:18:44;63250.31;;;34.33;35.43
7836;BME280;3963;42.658;23.298;2022-08-16T10:21:11;63311.72;;;34.60;34.73
7836;BME280;3963;42.658;23.298;2022-08-16T10:23:40;63068.34;;;33.64;36.18
7836;BME280;3963;42.658;23.298;2022-08-16T10:26:06;63197.34;;;34.15;35.27
7836;BME280;3963;42.658;23.298;2022-08-16T10:28:34;63354.44;;;34.76;35.10
7836;BME280;3963;42.658;23.298;2022-08-16T10:31:04;63404.03;;;35.04;34.66
7836;BME280;3963;42.658;23.298;2022-08-16T10:33:32;63346.06;;;34.83;35.10
7836;BME280;3963;42.658;23.298;2022-08-16T10:36:01;63307.03;;;34.51;35.26
7836;BME280;3963;42.658;23.298;2022-08-16T10:38:31;63301.19;;;34.53;34.48
7836;BME280;3963;42.658;23.298;2022-08-16T10:40:58;63116.56;;;34.00;35.17
7836;BME280;3963;42.658;23.298;2022-08-16T10:43:25;63145.81;;;34.05;35.66
7836;BME280;3963;42.658;23.298;2022-08-16T10:45:52;63187.47;;;34.37;35.66
7836;BME280;3963;42.658;23.298;2022-08-16T10:48:20;63063.91;;;33.60;38.65
7836;BME280;3963;42.658;23.298;2022-08-16T10:50:47;62942.31;;;32.88;40.67
7836;BME280;3963;42.658;23.298;2022-08-16T10:53:14;63016.63;;;33.19;41.35
7836;BME280;3963;42.658;23.298;2022-08-16T10:55:42;63036.59;;;33.50;39.97
7836;BME280;3963;42.658;23.298;2022-08-16T10:58:12;62940.75;;;33.04;40.91
7836;BME280;3963;42.658;23.298;2022-08-16T11:00:42;62824.25;;;32.35;41.92
7836;BME280;3963;42.658;23.298;2022-08-16T11:03:09;62765.78;;;32.21;40.15
7836;BME280;3963;42.658;23.298;2022-08-16T11:05:38;62874.16;;;32.75;39.09
7836;BME280;3963;42.658;23.298;2022-08-16T11:08:06;63081.94;;;33.81;37.44
7836;BME280;3963;42.658;23.298;2022-08-16T11:10:38;63072.81;;;33.68;36.39
7836;BME280;3963;42.658;23.298;2022-08-16T11:13:06;63191.63;;;34.19;34.88
7836;BME280;3963;42.658;23.298;2022-08-16T11:15:33;63263.53;;;34.40;35.95
7836;BME280;3963;42.658;23.298;2022-08-16T11:18:00;63176.06;;;34.08;35.65
7836;BME280;3963;42.658;23.298;2022-08-16T11:20:27;63077.72;;;33.70;36.99
7836;BME280;3963;42.658;23.298;2022-08-16T11:22:56;63112.94;;;33.89;36.36
7836;BME280;3963;42.658;23.298;2022-08-16T11:25:26;63138.38;;;33.93;37.17
7836;BME280;3963;42.658;23.298;2022-08-16T11:27:54;63016.44;;;33.29;38.49
7836;BME280;3963;42.658;23.298;2022-08-16T11:30:22;63027.94;;;33.34;38.60
7836;BME280;3963;42.658;23.298;2022-08-16T11:32:49;63017.13;;;33.47;38.73
7836;BME280;3963;42.658;23.298;2022-08-16T11:35:18;62908.28;;;33.11;40.07
7836;BME280;3963;42.658;23.298;2022-08-16T11:37:47;62882.91;;;32.52;40.28
7836;BME280;3963;42.658;23.298;2022-08-16T11:40:16;62897.22;;;32.89;40.62
7836;BME280;3963;42.658;23.298;2022-08-16T11:42:43;62930.69;;;33.07;40.76
7836;BME280;3963;42.658;23.298;2022-08-16T11:45:10;62973.34;;;33.12;40.03
7836;BME280;3963;42.658;23.298;2022-08-16T11:47:38;62735.41;;;31.98;44.08
7836;BME280;3963;42.658;23.298;2022-08-16T11:50:06;62651.78;;;31.27;44.71
7836;BME280;3963;42.658;23.298;2022-08-16T11:52:33;62542.97;;;30.96;46.93
7836;BME280;3963;42.658;23.298;2022-08-16T11:55:00;62461.69;;;30.86;48.85
7836;BME280;3963;42.658;23.298;2022-08-16T11:57:29;62602.06;;;31.16;48.37
7836;BME280;3963;42.658;23.298;2022-08-16T11:59:55;62610.75;;;31.34;46.42
7836;BME280;3963;42.658;23.298;2022-08-16T12:02:22;62595.22;;;31.19;44.22
7836;BME280;3963;42.658;23.298;2022-08-16T12:04:50;62504.72;;;30.76;44.20
7836;BME280;3963;42.658;23.298;2022-08-16T12:07:16;62522.34;;;30.90;42.44
7836;BME280;3963;42.658;23.298;2022-08-16T12:09:43;62521.53;;;31.11;40.93
7836;BME280;3963;42.658;23.298;2022-08-16T12:12:10;62588.00;;;31.27;39.61
7836;BME280;3963;42.658;23.298;2022-08-16T12:14:38;62597.09;;;31.26;38.56
7836;BME280;3963;42.658;23.298;2022-08-16T12:17:05;62577.31;;;31.27;39.42
7836;BME280;3963;42.658;23.298;2022-08-16T12:19:32;62546.63;;;31.09;39.91
7836;BME280;3963;42.658;23.298;2022-08-16T12:21:59;62469.28;;;30.58;41.13
7836;BME280;3963;42.658;23.298;2022-08-16T12:24:27;62381.28;;;30.07;42.31
7836;BME280;3963;42.658;23.298;2022-08-16T12:26:55;62282.91;;;29.79;43.18
7836;BME280;3963;42.658;23.298;2022-08-16T12:29:24;62356.03;;;29.89;43.59
7836;BME280;3963;42.658;23.298;2022-08-16T12:31:52;62332.06;;;29.92;43.86
7836;BME280;3963;42.658;23.298;2022-08-16T12:34:19;62334.44;;;30.13;43.53
7836;BME280;3963;42.658;23.298;2022-08-16T12:36:46;62416.88;;;30.45;43.77
7836;BME280;3963;42.658;23.298;2022-08-16T12:39:13;62375.00;;;30.11;44.51
7836;BME280;3963;42.658;23.298;2022-08-16T12:41:42;62386.41;;;30.32;44.31
7836;BME280;3963;42.658;23.298;2022-08-16T12:44:11;62452.47;;;30.53;44.44
7836;BME280;3963;42.658;23.298;2022-08-16T12:46:39;62518.00;;;30.73;43.93
7836;BME280;3963;42.658;23.298;2022-08-16T12:49:07;62460.41;;;30.65;43.55
7836;BME280;3963;42.658;23.298;2022-08-16T12:51:38;62439.19;;;30.70;43.88
7836;BME280;3963;42.658;23.298;2022-08-16T12:54:07;62427.94;;;30.55;43.37
7836;BME280;3963;42.658;23.298;2022-08-16T12:56:36;62456.91;;;30.57;43.90
7836;BME280;3963;42.658;23.298;2022-08-16T12:59:08;62448.97;;;30.59;43.74
7836;BME280;3963;42.658;23.298;2022-08-16T13:01:36;62435.31;;;30.52;44.71
7836;BME280;3963;42.658;23.298;2022-08-16T13:04:05;62441.88;;;30.55;44.76
7836;BME280;3963;42.658;23.298;2022-08-16T13:06:35;62493.16;;;30.68;44.92
7836;BME280;3963;42.658;23.298;2022-08-16T13:09:04;62577.22;;;31.10;44.33